Time;durP1;ratioP1;P1;durP2;ratioP2;P2;SDS_P1;SDS_P2;PMS_P1;PMS_P2;Temp;Humidity;BMP_temperature;BMP_pressure;BME280_temperature;BME280_humidity;BME280_pressure;Samples;Min_cycle;Max_cycle;Signal;HPM_P1;HPM_P2
2022/08/20 00:00:11;;;;;;;;;;;;;;;25.91;73.17;154173.61;1770538;81;20411;-60
2022/08/20 00:02:44;;;;;;;;;;;;;;;25.70;73.88;154119.91;1771022;81;20519;-60
2022/08/20 00:05:10;;;;;;;;;;;;;;;25.48;74.96;154064.86;1763712;81;21154;-60
2022/08/20 00:07:37;;;;;;;;;;;;;;;25.31;75.85;154021.53;1739913;82;20554;-59
2022/08/20 00:10:05;;;;;;;;;;;;;;;25.20;76.67;153992.75;1739889;82;20179;-59
2022/08/20 00:12:34;;;;;;;;;;;;;;;25.13;77.24;153977.03;1740626;82;20130;-59
2022/08/20 00:15:00;;;;;;;;;;;;;;;25.09;77.61;153966.56;1740106;82;20207;-59
2022/08/20 00:17:34;;;;;;;;;;;;;;;25.09;78.22;153966.56;1739991;81;21229;-59
2022/08/20 00:19:56;;;;;;;;;;;;;;;25.02;78.39;153948.19;1735980;81;20160;-58
2022/08/20 00:22:22;;;;;;;;;;;;;;;24.94;78.92;153927.25;1736815;82;20456;-58
2022/08/20 00:24:49;;;;;;;;;;;;;;;24.94;79.50;153927.25;1736663;81;20621;-58
2022/08/20 00:27:16;;;;;;;;;;;;;;;25.06;79.67;153957.38;1736949;82;20497;-59
2022/08/20 00:29:43;;;;;;;;;;;;;;;25.16;79.22;153983.55;1736709;82;21258;-59
2022/08/20 00:32:09;;;;;;;;;;;;;;;25.14;78.91;153978.31;1737012;82;20183;-59
2022/08/20 00:34:37;;;;;;;;;;;;;;;25.03;79.26;153950.80;1736766;82;20184;-59
2022/08/20 00:37:04;;;;;;;;;;;;;;;25.02;79.92;153949.52;1736659;82;21824;-59
2022/08/20 00:39:30;;;;;;;;;;;;;;;25.08;79.77;153963.89;1737292;82;20258;-59
2022/08/20 00:41:58;;;;;;;;;;;;;;;25.11;79.61;153971.80;1736844;82;21822;-58
2022/08/20 00:44:24;;;;;;;;;;;;;;;25.13;79.82;153977.03;1736933;82;20221;-72
2022/08/20 00:46:51;;;;;;;;;;;;;;;25.25;79.74;154005.83;1736895;82;20504;-73
2022/08/20 00:49:24;;;;;;;;;;;;;;;25.36;79.52;154034.67;1736906;82;20235;-60
2022/08/20 00:52:06;;;;;;;;;;;;;;;25.52;78.78;154074.00;1738155;82;20207;-59
2022/08/20 00:54:36;;;;;;;;;;;;;;;25.59;77.89;154092.38;1740021;82;21228;-74
2022/08/20 00:57:06;;;;;;;;;;;;;;;25.60;77.94;154095.00;1739405;82;20176;-74
2022/08/20 00:59:35;;;;;;;;;;;;;;;25.63;77.38;154101.52;1740467;81;20211;-74
2022/08/20 01:02:03;;;;;;;;;;;;;;;25.64;77.35;154105.47;1739765;81;20421;-74
2022/08/20 01:04:32;;;;;;;;;;;;;;;25.65;76.98;154108.09;1740521;82;20207;-75
2022/08/20 01:06:59;;;;;;;;;;;;;;;25.61;77.00;154097.63;1740429;82;21800;-74
2022/08/20 01:09:26;;;;;;;;;;;;;;;25.52;77.00;154074.00;1740057;82;20174;-74
2022/08/20 01:11:53;;;;;;;;;;;;;;;25.42;77.23;154049.06;1740460;82;20187;-60
2022/08/20 01:16:55;;;;;;;;;;;;;;;25.39;78.01;154041.20;1739949;82;20187;-75
2022/08/20 01:19:26;;;;;;;;;;;;;;;25.41;77.98;154047.77;1739535;82;21198;-59
2022/08/20 01:21:52;;;;;;;;;;;;;;;25.42;78.11;154050.39;1738027;82;20337;-60
2022/08/20 01:24:31;;;;;;;;;;;;;;;25.48;78.02;154063.53;1738335;82;20194;-59
2022/08/20 01:26:58;;;;;;;;;;;;;;;25.48;77.87;154063.53;1738453;82;20774;-60
2022/08/20 01:29:26;;;;;;;;;;;;;;;25.43;78.05;154053.00;1686627;82;20177;-60
2022/08/20 01:31:59;;;;;;;;;;;;;;;25.47;78.08;154062.25;1738477;82;39074;-60
2022/08/20 01:34:22;;;;;;;;;;;;;;;25.51;77.62;154071.37;1737981;82;20170;-60
2022/08/20 01:36:50;;;;;;;;;;;;;;;25.44;77.67;154055.62;1738911;82;20216;-59
2022/08/20 01:39:19;;;;;;;;;;;;;;;25.33;77.83;154026.83;1740400;81;20165;-59
2022/08/20 01:42:10;;;;;;;;;;;;;;;25.23;78.39;154001.94;1740042;82;20550;-75
2022/08/20 01:44:37;;;;;;;;;;;;;;;25.15;78.54;153980.94;1740415;82;21236;-74
2022/08/20 01:47:20;;;;;;;;;;;;;;;25.08;78.90;153963.89;1740063;81;20496;-74
2022/08/20 01:49:50;;;;;;;;;;;;;;;24.99;79.03;153940.33;1739899;82;20147;-74
2022/08/20 01:52:42;;;;;;;;;;;;;;;24.93;79.36;153924.63;1738295;82;20441;-74
2022/08/20 01:55:08;;;;;;;;;;;;;;;24.79;79.87;153890.56;1737028;82;20542;-74
2022/08/20 01:57:35;;;;;;;;;;;;;;;24.66;80.75;153856.48;1737333;82;21861;-74
2022/08/20 02:00:06;;;;;;;;;;;;;;;24.63;81.12;153849.91;1736693;82;20168;-59
2022/08/20 02:02:33;;;;;;;;;;;;;;;24.55;81.37;153830.25;1737061;81;20231;-59
2022/08/20 02:05:00;;;;;;;;;;;;;;;24.46;81.97;153807.98;1736666;82;20231;-59
2022/08/20 02:07:28;;;;;;;;;;;;;;;24.30;82.57;153767.41;1737233;82;20463;-60
2022/08/20 02:09:55;;;;;;;;;;;;;;;24.12;83.42;153720.25;1736852;81;21301;-58
2022/08/20 02:12:22;;;;;;;;;;;;;;;23.93;84.21;153673.08;1733708;82;20188;-58
2022/08/20 02:14:50;;;;;;;;;;;;;;;23.83;85.17;153648.19;1732460;82;20176;-59
2022/08/20 02:17:18;;;;;;;;;;;;;;;23.79;85.72;153637.73;1732505;82;20851;-59
2022/08/20 02:19:59;;;;;;;;;;;;;;;23.70;86.06;153615.47;1734610;82;20173;-58
2022/08/20 02:22:48;;;;;;;;;;;;;;;23.65;86.60;153602.39;1733829;82;21222;-59
2022/08/20 02:25:15;;;;;;;;;;;;;;;23.63;86.91;153595.83;1735101;82;20389;-59
2022/08/20 02:27:44;;;;;;;;;;;;;;;23.57;86.93;153581.47;1735213;82;20181;-58
2022/08/20 02:30:14;;;;;;;;;;;;;;;23.46;87.38;153555.27;1735727;82;20387;-59
2022/08/20 02:32:41;;;;;;;;;;;;;;;23.42;87.77;153543.47;1735534;82;20174;-59
2022/08/20 02:35:09;;;;;;;;;;;;;;;23.37;88.08;153531.73;1735311;82;21155;-59
2022/08/20 02:37:36;;;;;;;;;;;;;;;23.29;88.53;153510.77;1715633;81;20252;-59
2022/08/20 02:40:04;;;;;;;;;;;;;;;23.21;88.98;153489.78;1707041;82;20202;-59
2022/08/20 02:42:31;;;;;;;;;;;;;;;23.15;89.64;153476.72;1707368;82;20466;-58
2022/08/20 02:44:58;;;;;;;;;;;;;;;23.10;89.88;153463.64;1707151;82;20480;-59
2022/08/20 02:47:44;;;;;;;;;;;;;;;23.03;90.23;153445.28;1702627;83;20181;-59
2022/08/20 02:50:13;;;;;;;;;;;;;;;22.94;90.86;153421.77;1702435;83;20191;-59
2022/08/20 02:52:41;;;;;;;;;;;;;;;22.88;91.21;153408.69;1703105;82;20198;-59
2022/08/20 02:55:08;;;;;;;;;;;;;;;22.84;91.73;153398.19;1702614;84;20297;-60
2022/08/20 02:57:35;;;;;;;;;;;;;;;22.80;92.05;153386.44;1703066;84;20153;-59
2022/08/20 03:00:05;;;;;;;;;;;;;;;22.76;92.49;153377.27;1702442;84;21248;-59
2022/08/20 03:02:32;;;;;;;;;;;;;;;22.70;92.65;153361.58;1702790;83;20199;-60
2022/08/20 03:04:59;;;;;;;;;;;;;;;22.67;93.23;153353.73;1702455;84;20202;-59
2022/08/20 03:07:26;;;;;;;;;;;;;;;22.65;93.42;153348.47;1702387;84;20774;-59
2022/08/20 03:09:53;;;;;;;;;;;;;;;22.63;93.69;153343.23;1702512;84;20153;-60
2022/08/20 03:12:20;;;;;;;;;;;;;;;22.59;93.97;153335.39;1701431;84;21277;-60
2022/08/20 03:14:47;;;;;;;;;;;;;;;22.55;94.42;153323.66;1700967;84;20176;-59
2022/08/20 03:17:15;;;;;;;;;;;;;;;22.53;94.84;153318.37;1700925;84;20278;-59
2022/08/20 03:19:41;;;;;;;;;;;;;;;22.54;94.86;153322.31;1713932;82;20566;-59
2022/08/20 03:22:08;;;;;;;;;;;;;;;22.55;94.99;153324.94;1717120;83;20555;-59
2022/08/20 03:24:35;;;;;;;;;;;;;;;22.53;95.13;153319.70;1717201;83;21238;-59
2022/08/20 03:27:02;;;;;;;;;;;;;;;22.49;95.35;153309.25;1717011;83;20204;-59
2022/08/20 03:29:29;;;;;;;;;;;;;;;22.49;95.46;153309.25;1717088;83;20208;-58
2022/08/20 03:31:55;;;;;;;;;;;;;;;22.48;95.51;153306.64;1716849;83;20604;-60
2022/08/20 03:34:22;;;;;;;;;;;;;;;22.48;95.70;153305.31;1717199;83;20208;-59
2022/08/20 03:36:49;;;;;;;;;;;;;;;22.53;95.75;153318.37;1723668;82;22239;-60
2022/08/20 03:39:16;;;;;;;;;;;;;;;22.56;95.45;153327.55;1734845;82;20137;-60
2022/08/20 03:41:42;;;;;;;;;;;;;;;22.58;95.23;153332.78;1735020;82;20167;-61
2022/08/20 03:44:09;;;;;;;;;;;;;;;22.58;95.24;153332.78;1734756;81;20204;-60
2022/08/20 03:46:37;;;;;;;;;;;;;;;22.59;95.25;153335.39;1735331;82;20206;-60
2022/08/20 03:49:04;;;;;;;;;;;;;;;22.63;95.21;153344.56;1736511;82;21250;-60
2022/08/20 03:51:31;;;;;;;;;;;;;;;22.68;95.23;153357.63;1736700;82;20312;-60
2022/08/20 03:53:58;;;;;;;;;;;;;;;22.72;94.72;153368.09;1736607;82;20542;-60
2022/08/20 03:56:26;;;;;;;;;;;;;;;22.76;94.62;153377.27;1737125;82;20197;-59
2022/08/20 03:58:52;;;;;;;;;;;;;;;22.80;94.34;153387.72;1736291;82;20207;-59
2022/08/20 04:01:19;;;;;;;;;;;;;;;22.83;94.07;153395.56;1736696;82;22102;-59
2022/08/20 04:03:46;;;;;;;;;;;;;;;22.84;93.73;153398.19;1736699;82;20182;-58
2022/08/20 04:06:13;;;;;;;;;;;;;;;22.88;93.91;153408.69;1720439;82;20473;-59
2022/08/20 04:08:40;;;;;;;;;;;;;;;22.94;93.46;153423.05;1711577;83;20177;-59
2022/08/20 04:11:07;;;;;;;;;;;;;;;23.00;93.09;153437.44;1711236;83;20212;-59
2022/08/20 04:13:35;;;;;;;;;;;;;;;23.03;92.73;153445.28;1710302;83;21233;-59
2022/08/20 04:16:06;;;;;;;;;;;;;;;23.10;92.56;153463.64;1709828;84;20490;-59
2022/08/20 04:18:33;;;;;;;;;;;;;;;23.23;91.88;153495.02;1711198;83;20524;-59
2022/08/20 04:20:59;;;;;;;;;;;;;;;23.32;90.93;153518.61;1711590;83;20530;-58
2022/08/20 04:23:26;;;;;;;;;;;;;;;23.39;90.14;153536.97;1711597;83;20193;-59
2022/08/20 04:25:53;;;;;;;;;;;;;;;23.41;89.91;153542.19;1711394;83;21220;-59
2022/08/20 04:28:25;;;;;;;;;;;;;;;23.46;89.53;153555.27;1711479;83;20236;-59
2022/08/20 04:30:51;;;;;;;;;;;;;;;23.48;89.23;153557.88;1710882;83;20207;-59
2022/08/20 04:33:19;;;;;;;;;;;;;;;23.51;89.02;153565.72;1711719;83;20208;-60
2022/08/20 04:35:45;;;;;;;;;;;;;;;23.58;88.83;153585.37;1711787;83;20132;-60
2022/08/20 04:38:16;;;;;;;;;;;;;;;23.66;88.27;153605.02;1739587;82;21225;-59
2022/08/20 04:40:59;;;;;;;;;;;;;;;23.74;88.06;153625.94;1740929;81;20198;-59
2022/08/20 04:43:27;;;;;;;;;;;;;;;23.87;87.70;153657.38;1740386;82;20182;-59
2022/08/20 04:45:56;;;;;;;;;;;;;;;24.00;86.91;153691.44;1740767;82;20212;-59
2022/08/20 04:48:23;;;;;;;;;;;;;;;24.07;85.99;153708.47;1731749;81;20142;-59
2022/08/20 04:50:52;;;;;;;;;;;;;;;24.12;85.86;153721.59;1731809;82;21132;-73
2022/08/20 04:53:21;;;;;;;;;;;;;;;24.19;85.18;153738.58;1732064;82;20522;-74
2022/08/20 04:55:47;;;;;;;;;;;;;;;24.21;84.72;153743.86;1732146;82;20149;-74
2022/08/20 04:58:19;;;;;;;;;;;;;;;24.23;84.77;153749.09;1731908;81;20106;-74
2022/08/20 05:00:51;;;;;;;;;;;;;;;24.30;84.71;153766.08;1732353;81;20258;-75
2022/08/20 05:03:18;;;;;;;;;;;;;;;24.41;83.96;153793.56;1732095;81;20960;-75
2022/08/20 05:05:45;;;;;;;;;;;;;;;24.53;83.81;153825.03;1718508;82;21184;-60
2022/08/20 05:08:12;;;;;;;;;;;;;;;24.72;82.74;153872.19;1702381;84;20202;-60
2022/08/20 05:10:39;;;;;;;;;;;;;;;24.86;82.05;153908.88;1702348;84;20178;-60
2022/08/20 05:13:07;;;;;;;;;;;;;;;24.99;80.88;153941.67;1700864;84;20440;-60
2022/08/20 05:15:33;;;;;;;;;;;;;;;25.04;80.16;153953.42;1701312;84;21858;-60
2022/08/20 05:18:01;;;;;;;;;;;;;;;25.06;79.39;153958.66;1702052;83;20200;-60
2022/08/20 05:20:30;;;;;;;;;;;;;;;25.02;79.86;153949.52;1717365;83;20524;-60
2022/08/20 05:22:58;;;;;;;;;;;;;;;25.02;79.87;153948.19;1716866;83;20228;-60
2022/08/20 05:25:28;;;;;;;;;;;;;;;25.06;80.02;153957.38;1717219;83;20241;-59
2022/08/20 05:27:59;;;;;;;;;;;;;;;25.21;79.78;153995.36;1716955;83;21154;-59
2022/08/20 05:30:32;;;;;;;;;;;;;;;25.32;78.45;154024.20;1716870;83;20284;-60
2022/08/20 05:32:55;;;;;;;;;;;;;;;25.37;77.83;154035.97;1716062;83;20212;-59
2022/08/20 05:35:22;;;;;;;;;;;;;;;25.43;77.72;154053.00;1717308;83;20205;-59
2022/08/20 05:37:48;;;;;;;;;;;;;;;25.55;77.02;154083.19;1717686;83;20212;-59
2022/08/20 05:40:15;;;;;;;;;;;;;;;25.68;76.90;154115.94;1717240;83;21290;-60
2022/08/20 05:42:42;;;;;;;;;;;;;;;25.85;75.50;154159.19;1717143;83;20221;-61
2022/08/20 05:45:09;;;;;;;;;;;;;;;25.92;74.96;154176.23;1717158;82;21035;-59
2022/08/20 05:47:38;;;;;;;;;;;;;;;25.97;73.94;154189.33;1727026;82;20658;-60
2022/08/20 05:50:06;;;;;;;;;;;;;;;25.93;74.08;154178.84;1733901;82;20227;-59
2022/08/20 05:52:32;;;;;;;;;;;;;;;25.97;73.67;154188.05;1734264;82;22140;-59
2022/08/20 05:54:59;;;;;;;;;;;;;;;25.89;73.52;154169.70;1733715;82;20204;-58
2022/08/20 05:57:26;;;;;;;;;;;;;;;25.89;73.75;154168.37;1734025;81;20161;-60
2022/08/20 05:59:52;;;;;;;;;;;;;;;25.99;74.00;154194.61;1733829;81;20548;-59
2022/08/20 06:05:05;;;;;;;;;;;;;;;26.19;73.35;154244.44;1729182;82;21218;-60
2022/08/20 06:07:32;;;;;;;;;;;;;;;26.34;71.92;154281.16;1706861;82;20545;-61
2022/08/20 06:10:00;;;;;;;;;;;;;;;26.42;71.53;154302.16;1706263;84;20178;-60
2022/08/20 06:12:26;;;;;;;;;;;;;;;26.46;71.56;154312.64;1725902;81;20390;-60
2022/08/20 06:14:53;;;;;;;;;;;;;;;26.57;71.19;154341.45;1733782;82;20211;-73
2022/08/20 06:17:20;;;;;;;;;;;;;;;26.68;70.39;154367.70;1733978;81;21212;-74
2022/08/20 06:19:46;;;;;;;;;;;;;;;26.70;69.90;154372.95;1734213;82;20197;-73
2022/08/20 06:22:13;;;;;;;;;;;;;;;26.71;69.73;154376.86;1733893;81;20236;-74
2022/08/20 06:24:40;;;;;;;;;;;;;;;26.77;69.32;154391.28;1733840;81;20211;-74
2022/08/20 06:27:07;;;;;;;;;;;;;;;26.78;68.91;154392.63;1733961;82;20188;-73
2022/08/20 06:29:34;;;;;;;;;;;;;;;26.74;69.34;154383.44;1734208;82;22136;-73
2022/08/20 06:32:02;;;;;;;;;;;;;;;26.85;69.22;154411.02;1733675;81;20200;-74
2022/08/20 06:34:29;;;;;;;;;;;;;;;26.96;68.63;154438.56;1734237;82;20208;-74
2022/08/20 06:36:56;;;;;;;;;;;;;;;27.07;69.23;154467.39;1722230;82;20166;-74
2022/08/20 06:39:23;;;;;;;;;;;;;;;27.23;70.14;154506.75;1706433;82;20159;-74
2022/08/20 06:41:50;;;;;;;;;;;;;;;27.35;70.09;154538.25;1706723;84;21178;-73
2022/08/20 06:44:17;;;;;;;;;;;;;;;27.51;69.64;154578.95;1706282;82;20577;-60
2022/08/20 06:46:44;;;;;;;;;;;;;;;27.59;69.69;154598.64;1706679;82;20162;-60
2022/08/20 06:49:11;;;;;;;;;;;;;;;27.68;69.48;154622.23;1706398;84;20453;-60
2022/08/20 06:51:37;;;;;;;;;;;;;;;27.76;68.12;154640.63;1706375;84;20180;-73
2022/08/20 06:54:04;;;;;;;;;;;;;;;27.78;68.82;154645.88;1706180;84;21256;-74
2022/08/20 06:56:32;;;;;;;;;;;;;;;27.81;68.71;154655.03;1706445;84;20312;-74
2022/08/20 06:58:59;;;;;;;;;;;;;;;27.89;68.97;154674.72;1706623;84;20160;-73
2022/08/20 07:01:26;;;;;;;;;;;;;;;28.09;68.28;154725.92;1706421;84;20142;-72
2022/08/20 07:03:54;;;;;;;;;;;;;;;28.24;67.08;154764.02;1706435;84;20227;-72
2022/08/20 07:06:20;;;;;;;;;;;;;;;28.40;66.38;154803.36;1686762;84;21236;-73
2022/08/20 07:08:47;;;;;;;;;;;;;;;28.56;65.95;154845.38;1677834;85;20182;-61
2022/08/20 07:11:14;;;;;;;;;;;;;;;28.65;64.90;154867.69;1683557;84;20215;-60
2022/08/20 07:13:40;;;;;;;;;;;;;;;28.62;64.89;154858.48;1704814;83;20184;-60
2022/08/20 07:16:08;;;;;;;;;;;;;;;28.59;65.51;154853.23;1704893;84;20220;-74
2022/08/20 07:18:35;;;;;;;;;;;;;;;28.68;65.38;154874.27;1705507;84;20634;-73
2022/08/20 07:21:01;;;;;;;;;;;;;;;28.74;65.26;154890.00;1706310;83;20177;-74
2022/08/20 07:23:30;;;;;;;;;;;;;;;28.65;65.56;154866.41;1706639;84;20183;-74
2022/08/20 07:25:57;;;;;;;;;;;;;;;28.64;65.96;154863.78;1707152;83;20541;-74
2022/08/20 07:28:27;;;;;;;;;;;;;;;28.65;65.66;154866.41;1706731;84;20145;-75
2022/08/20 07:33:39;;;;;;;;;;;;;;;28.52;65.68;154834.88;1706614;83;20201;-75
2022/08/20 07:36:07;;;;;;;;;;;;;;;28.28;66.35;154774.50;1708886;82;20216;-75
2022/08/20 07:38:34;;;;;;;;;;;;;;;28.27;67.17;154771.89;1734378;82;20201;-75
2022/08/20 07:41:03;;;;;;;;;;;;;;;28.37;67.49;154795.48;1734427;82;20637;-60
2022/08/20 07:43:30;;;;;;;;;;;;;;;28.41;67.19;154807.31;1733946;82;21734;-60
2022/08/20 07:46:01;;;;;;;;;;;;;;;28.47;67.01;154821.77;1734801;82;20141;-60
2022/08/20 07:48:29;;;;;;;;;;;;;;;28.48;67.44;154824.39;1736172;82;20174;-60
2022/08/20 07:50:56;;;;;;;;;;;;;;;28.54;67.34;154840.13;1736484;82;20496;-75
2022/08/20 07:53:23;;;;;;;;;;;;;;;28.60;66.54;154855.86;1736964;82;20170;-75
2022/08/20 07:55:50;;;;;;;;;;;;;;;28.72;66.31;154886.05;1737062;82;21242;-75
2022/08/20 07:58:18;;;;;;;;;;;;;;;28.80;65.42;154905.80;1736571;82;20115;-75
2022/08/20 08:00:45;;;;;;;;;;;;;;;28.85;65.78;154918.97;1736972;82;20218;-61
2022/08/20 08:03:12;;;;;;;;;;;;;;;28.87;65.82;154924.22;1736560;82;20159;-61
2022/08/20 08:05:40;;;;;;;;;;;;;;;28.91;65.40;154932.08;1726583;82;20180;-61
2022/08/20 08:08:08;;;;;;;;;;;;;;;28.86;64.66;154921.58;1711533;83;21236;-61
2022/08/20 08:10:36;;;;;;;;;;;;;;;28.90;64.44;154929.45;1712022;83;20144;-61
2022/08/20 08:13:04;;;;;;;;;;;;;;;28.98;65.25;154950.44;1710616;83;20504;-61
2022/08/20 08:15:33;;;;;;;;;;;;;;;29.03;65.47;154963.56;1709788;83;20216;-61
2022/08/20 08:18:04;;;;;;;;;;;;;;;29.02;65.06;154962.28;1709655;83;20180;-61
2022/08/20 08:20:31;;;;;;;;;;;;;;;29.04;64.37;154966.19;1711415;83;21164;-59
2022/08/20 08:22:59;;;;;;;;;;;;;;;29.13;64.90;154989.84;1711367;83;20209;-60
2022/08/20 08:25:26;;;;;;;;;;;;;;;29.23;64.55;155013.47;1689503;83;20097;-60
2022/08/20 08:27:53;;;;;;;;;;;;;;;29.29;63.99;155029.20;1711035;83;20212;-59
2022/08/20 08:30:20;;;;;;;;;;;;;;;29.33;63.89;155038.41;1711211;83;20225;-60
2022/08/20 08:35:32;;;;;;;;;;;;;;;29.22;64.50;155010.84;1711382;83;20180;-60
2022/08/20 08:38:01;;;;;;;;;;;;;;;29.29;64.25;155029.20;1732460;82;20319;-61
2022/08/20 08:40:29;;;;;;;;;;;;;;;29.27;63.97;155023.95;1736477;82;20230;-61
2022/08/20 08:42:56;;;;;;;;;;;;;;;29.22;63.34;155010.84;1736860;82;20170;-60
2022/08/20 08:45:26;;;;;;;;;;;;;;;29.22;63.32;155012.17;1736505;82;21237;-58
2022/08/20 08:47:53;;;;;;;;;;;;;;;29.31;63.00;155034.50;1735678;82;20494;-60
2022/08/20 08:50:27;;;;;;;;;;;;;;;29.42;62.76;155062.12;1735689;82;20190;-60
2022/08/20 08:52:58;;;;;;;;;;;;;;;29.55;62.22;155096.25;1734681;82;20163;-59
2022/08/20 08:55:25;;;;;;;;;;;;;;;29.71;61.84;155136.94;1735761;82;20140;-61
2022/08/20 08:57:54;;;;;;;;;;;;;;;29.87;61.17;155176.36;1736105;82;21152;-59
2022/08/20 09:00:22;;;;;;;;;;;;;;;30.06;60.78;155223.70;1735588;82;20495;-59
2022/08/20 09:03:07;;;;;;;;;;;;;;;30.21;60.15;155263.13;1735897;82;20572;-60
2022/08/20 09:05:37;;;;;;;;;;;;;;;30.23;58.87;155268.38;1723935;82;20196;-59
2022/08/20 09:08:05;;;;;;;;;;;;;;;30.30;58.88;155286.75;1705810;83;20208;-59
2022/08/20 09:10:32;;;;;;;;;;;;;;;30.37;57.95;155302.50;1705890;83;21256;-59
2022/08/20 09:13:00;;;;;;;;;;;;;;;30.36;58.02;155299.89;1704186;83;20173;-60
2022/08/20 09:15:26;;;;;;;;;;;;;;;30.36;58.15;155301.22;1703993;83;20469;-60
2022/08/20 09:17:54;;;;;;;;;;;;;;;30.42;57.39;155316.97;1704731;83;20176;-59
2022/08/20 09:20:20;;;;;;;;;;;;;;;30.41;57.94;155313.06;1717882;83;20196;-58
2022/08/20 09:22:47;;;;;;;;;;;;;;;30.49;57.85;155332.72;1718097;83;21277;-59
2022/08/20 09:25:14;;;;;;;;;;;;;;;30.59;57.17;155359.03;1718005;83;20221;-59
2022/08/20 09:27:41;;;;;;;;;;;;;;;30.68;57.07;155381.42;1718302;83;20228;-59
2022/08/20 09:30:08;;;;;;;;;;;;;;;30.78;56.73;155407.69;1717930;82;20168;-60
2022/08/20 09:32:35;;;;;;;;;;;;;;;30.94;56.02;155447.13;1718510;82;20219;-59
2022/08/20 09:35:03;;;;;;;;;;;;;;;31.13;55.85;155495.73;1718259;82;21239;-59
2022/08/20 09:37:30;;;;;;;;;;;;;;;31.28;54.62;155535.23;1729324;82;20184;-60
2022/08/20 09:39:57;;;;;;;;;;;;;;;31.39;54.02;155562.84;1735832;82;20181;-60
2022/08/20 09:42:30;;;;;;;;;;;;;;;31.55;53.44;155602.28;1735288;82;20213;-60
2022/08/20 09:44:57;;;;;;;;;;;;;;;31.68;53.25;155636.44;1735865;82;20179;-73
2022/08/20 09:47:24;;;;;;;;;;;;;;;31.82;53.25;155670.69;1735919;82;21128;-72
2022/08/20 09:49:51;;;;;;;;;;;;;;;31.89;52.29;155689.08;1734623;81;20179;-60
2022/08/20 09:52:24;;;;;;;;;;;;;;;31.81;52.42;155669.34;1734768;82;20204;-61
2022/08/20 09:54:51;;;;;;;;;;;;;;;31.92;52.13;155695.67;1734700;82;20172;-60
2022/08/20 09:57:18;;;;;;;;;;;;;;;32.04;52.06;155725.92;1734575;81;20172;-60
2022/08/20 09:59:47;;;;;;;;;;;;;;;32.18;51.42;155761.41;1734581;81;21246;-60
2022/08/20 10:02:13;;;;;;;;;;;;;;;32.18;51.21;155762.75;1734848;82;20231;-60
2022/08/20 10:04:40;;;;;;;;;;;;;;;32.26;50.78;155783.78;1734149;82;20207;-60
2022/08/20 10:07:07;;;;;;;;;;;;;;;32.26;50.93;155783.78;1673258;84;20221;-60
2022/08/20 10:09:35;;;;;;;;;;;;;;;32.15;50.63;155754.81;1674056;84;20183;-59
2022/08/20 10:12:02;;;;;;;;;;;;;;;31.99;50.67;155715.41;1706806;81;21332;-59
2022/08/20 10:14:30;;;;;;;;;;;;;;;31.94;50.79;155700.92;1735295;82;20116;-59
2022/08/20 10:16:59;;;;;;;;;;;;;;;31.93;50.50;155699.59;1734869;82;20457;-59
2022/08/20 10:19:28;;;;;;;;;;;;;;;31.96;51.05;155707.53;1722496;82;20237;-59
2022/08/20 10:21:55;;;;;;;;;;;;;;;32.07;50.47;155733.80;1717441;82;20646;-60
2022/08/20 10:24:22;;;;;;;;;;;;;;;32.01;50.75;155720.66;1717125;82;21246;-60
2022/08/20 10:26:49;;;;;;;;;;;;;;;32.12;50.60;155746.94;1717073;83;20326;-59
2022/08/20 10:29:16;;;;;;;;;;;;;;;32.21;50.22;155769.30;1717206;83;20209;-59
2022/08/20 10:31:43;;;;;;;;;;;;;;;32.08;50.39;155736.42;1717157;83;20232;-60
2022/08/20 10:34:09;;;;;;;;;;;;;;;32.07;50.75;155733.80;1717180;83;20205;-59
2022/08/20 10:36:36;;;;;;;;;;;;;;;32.20;50.51;155766.67;1722060;82;22153;-61
2022/08/20 10:39:03;;;;;;;;;;;;;;;32.21;50.39;155770.64;1734988;81;20196;-60
2022/08/20 10:41:31;;;;;;;;;;;;;;;32.05;50.42;155728.53;1734978;82;20133;-60
2022/08/20 10:43:58;;;;;;;;;;;;;;;31.83;50.62;155673.31;1735046;82;21025;-60
2022/08/20 10:46:24;;;;;;;;;;;;;;;31.49;51.45;155586.47;1734879;82;20493;-61
2022/08/20 10:48:51;;;;;;;;;;;;;;;31.36;52.26;155553.61;1735431;82;21143;-61
2022/08/20 10:51:18;;;;;;;;;;;;;;;31.56;51.71;155606.20;1736355;82;20171;-59
2022/08/20 10:53:45;;;;;;;;;;;;;;;31.70;50.64;155641.69;1736341;82;20190;-59
2022/08/20 10:56:12;;;;;;;;;;;;;;;31.63;50.49;155622.02;1736357;82;20447;-59
2022/08/20 10:58:38;;;;;;;;;;;;;;;31.52;50.55;155595.69;1736736;82;20861;-60
2022/08/20 11:01:05;;;;;;;;;;;;;;;31.43;50.92;155573.34;1736574;82;22151;-60
2022/08/20 11:03:33;;;;;;;;;;;;;;;31.49;50.35;155586.47;1736616;82;20191;-60
2022/08/20 11:06:00;;;;;;;;;;;;;;;31.46;50.39;155578.59;1723301;82;20466;-60
2022/08/20 11:08:27;;;;;;;;;;;;;;;31.49;50.30;155586.47;1712106;83;20143;-59
2022/08/20 11:10:53;;;;;;;;;;;;;;;31.52;50.67;155594.41;1711403;83;20185;-60
2022/08/20 11:13:21;;;;;;;;;;;;;;;31.62;49.92;155620.67;1709977;84;21254;-61
2022/08/20 11:15:48;;;;;;;;;;;;;;;31.69;49.11;155639.06;1709940;84;20189;-61
2022/08/20 11:18:15;;;;;;;;;;;;;;;31.75;49.24;155653.53;1710163;83;20224;-60
2022/08/20 11:20:41;;;;;;;;;;;;;;;31.92;49.23;155695.67;1711525;83;20181;-61
2022/08/20 11:23:08;;;;;;;;;;;;;;;31.92;48.84;155696.97;1711440;82;20185;-61
2022/08/20 11:25:35;;;;;;;;;;;;;;;31.73;48.58;155648.28;1711575;83;21843;-61
2022/08/20 11:28:02;;;;;;;;;;;;;;;31.48;49.44;155585.19;1711443;83;20184;-60
2022/08/20 11:30:31;;;;;;;;;;;;;;;31.33;50.41;155547.08;1688996;83;20572;-60
2022/08/20 11:32:58;;;;;;;;;;;;;;;31.27;50.76;155532.59;1711979;83;20508;-61
2022/08/20 11:35:26;;;;;;;;;;;;;;;31.29;50.66;155536.56;1711313;83;20447;-60
2022/08/20 11:37:53;;;;;;;;;;;;;;;31.39;50.63;155562.84;1732916;82;21208;-60
2022/08/20 11:40:20;;;;;;;;;;;;;;;31.48;49.79;155583.84;1736526;82;20549;-61
2022/08/20 11:42:47;;;;;;;;;;;;;;;31.42;49.26;155570.72;1736601;82;20472;-69
2022/08/20 11:45:14;;;;;;;;;;;;;;;31.25;49.68;155526.00;1736629;82;20439;-68
2022/08/20 11:47:40;;;;;;;;;;;;;;;31.13;49.37;155497.06;1737142;82;20296;-68
2022/08/20 11:50:13;;;;;;;;;;;;;;;31.04;49.71;155472.09;1735678;82;23127;-67
2022/08/20 11:52:40;;;;;;;;;;;;;;;31.06;50.17;155478.69;1734885;81;20197;-67
2022/08/20 11:55:09;;;;;;;;;;;;;;;31.20;50.17;155512.88;1735029;81;20197;-67
2022/08/20 11:57:40;;;;;;;;;;;;;;;31.30;49.89;155540.48;1735704;82;20143;-67
2022/08/20 12:00:11;;;;;;;;;;;;;;;31.47;49.75;155581.22;1735925;82;20118;-68
2022/08/20 12:02:38;;;;;;;;;;;;;;;31.54;49.54;155600.95;1735518;82;21052;-68
2022/08/20 12:05:05;;;;;;;;;;;;;;;31.72;49.15;155647.00;1730282;82;20176;-68
2022/08/20 12:07:32;;;;;;;;;;;;;;;31.75;48.73;155652.25;1706120;84;20188;-67
2022/08/20 12:09:59;;;;;;;;;;;;;;;31.64;48.56;155624.64;1705781;84;20658;-67
2022/08/20 12:12:26;;;;;;;;;;;;;;;31.45;48.95;155577.31;1704747;84;20137;-68
2022/08/20 12:14:54;;;;;;;;;;;;;;;31.19;49.65;155511.53;1704182;83;21207;-67
2022/08/20 12:17:23;;;;;;;;;;;;;;;31.04;50.12;155472.09;1704017;84;20283;-67
2022/08/20 12:19:51;;;;;;;;;;;;;;;31.08;50.19;155483.94;1704433;83;20442;-67
2022/08/20 12:22:18;;;;;;;;;;;;;;;31.21;49.03;155515.50;1704240;84;20471;-68
2022/08/20 12:24:45;;;;;;;;;;;;;;;31.33;48.74;155545.73;1704339;84;20169;-69
2022/08/20 12:27:14;;;;;;;;;;;;;;;31.48;47.75;155583.84;1704273;83;21230;-68
2022/08/20 12:29:41;;;;;;;;;;;;;;;31.70;46.89;155641.69;1704779;84;20185;-68
2022/08/20 12:32:08;;;;;;;;;;;;;;;31.80;46.58;155666.72;1704508;84;20176;-69
2022/08/20 12:34:36;;;;;;;;;;;;;;;31.96;45.26;155706.19;1704409;83;20630;-70
2022/08/20 12:37:04;;;;;;;;;;;;;;;32.05;45.21;155728.53;1704707;83;20116;-69
2022/08/20 12:39:32;;;;;;;;;;;;;;;32.00;44.49;155718.03;1704506;83;21201;-70
2022/08/20 12:42:01;;;;;;;;;;;;;;;31.86;45.19;155682.53;1704540;84;20188;-70
2022/08/20 12:44:29;;;;;;;;;;;;;;;31.69;45.69;155639.06;1704522;83;20213;-68
2022/08/20 12:47:15;;;;;;;;;;;;;;;31.57;44.44;155608.83;1704352;84;20184;-71
2022/08/20 12:49:44;;;;;;;;;;;;;;;31.54;44.73;155599.66;1707053;83;20525;-70